createdAt,value
2018-08-09T00:00:17.281Z,71.6
2018-08-09T00:01:16.320Z,71.5
2018-08-09T00:02:16.603Z,71.5
2018-08-09T00:03:16.884Z,71.6
2018-08-09T00:04:17.156Z,71.5
2018-08-09T00:05:16.447Z,71.6
2018-08-09T00:06:16.719Z,71.6
2018-08-09T00:07:16.986Z,71.7
2018-08-09T00:08:17.253Z,72.0
2018-08-09T00:09:16.527Z,72.0
2018-08-09T00:10:16.798Z,72.2
2018-08-09T00:11:16.845Z,72.2
2018-08-09T00:12:17.112Z,72.3
2018-08-09T00:13:16.382Z,72.7
2018-08-09T00:14:16.648Z,72.6
2018-08-09T00:15:16.930Z,72.8
2018-08-09T00:16:17.196Z,72.6
2018-08-09T00:17:16.461Z,72.9
2018-08-09T00:18:16.722Z,73.1
2018-08-09T00:19:16.992Z,72.9
2018-08-09T00:20:16.283Z,73.0
2018-08-09T00:21:16.320Z,72.9
2018-08-09T00:22:16.580Z,73.0
2018-08-09T00:23:16.843Z,73.3
2018-08-09T00:24:17.108Z,73.5
2018-08-09T00:25:16.389Z,73.5
2018-08-09T00:26:16.653Z,73.5
2018-08-09T00:27:16.936Z,73.7
2018-08-09T00:28:17.204Z,73.7
2018-08-09T00:29:16.473Z,73.8
2018-08-09T00:30:16.743Z,73.8
2018-08-09T00:31:16.783Z,73.8
2018-08-09T00:32:17.060Z,74.0
2018-08-09T00:33:16.322Z,73.9
2018-08-09T00:34:16.596Z,73.9
2018-08-09T00:35:16.860Z,73.9
2018-08-09T00:36:17.143Z,73.9
2018-08-09T00:37:16.417Z,73.9
2018-08-09T00:38:16.678Z,74.0
2018-08-09T00:39:16.938Z,74.1
2018-08-09T00:40:17.210Z,74.2
2018-08-09T00:41:16.266Z,74.2
2018-08-09T00:42:16.548Z,74.3
2018-08-09T00:43:16.815Z,74.5
2018-08-09T00:44:17.079Z,74.5
2018-08-09T00:45:16.344Z,74.7
2018-08-09T00:46:16.633Z,74.8
2018-08-09T00:47:16.896Z,75.0
2018-08-09T00:48:17.159Z,75.0
2018-08-09T00:49:16.431Z,75.1
2018-08-09T00:50:16.708Z,75.1
2018-08-09T00:51:16.747Z,75.1
2018-08-09T00:52:17.017Z,75.3
2018-08-09T00:53:16.284Z,75.2
2018-08-09T00:54:16.567Z,75.2
2018-08-09T00:55:16.852Z,75.4
2018-08-09T00:56:17.285Z,75.3
2018-08-09T00:57:16.550Z,75.5
2018-08-09T00:58:16.826Z,75.4
2018-08-09T00:59:17.105Z,75.4
2018-08-09T01:00:16.387Z,75.4
2018-08-09T01:01:16.439Z,75.3
2018-08-09T01:02:16.730Z,75.3
2018-08-09T01:03:16.996Z,75.2
2018-08-09T01:04:16.285Z,75.4
2018-08-09T01:05:16.577Z,75.2
2018-08-09T01:06:16.851Z,75.2
2018-08-09T01:07:17.129Z,75.5
2018-08-09T01:08:16.408Z,75.2
2018-08-09T01:09:16.672Z,75.1
2018-08-09T01:10:16.953Z,75.2
2018-08-09T01:11:16.991Z,75.2
2018-08-09T01:12:16.254Z,75.2
2018-08-09T01:13:16.564Z,75.5
2018-08-09T01:14:16.831Z,75.7
2018-08-09T01:15:17.083Z,75.8
2018-08-09T01:16:16.354Z,76.0
2018-08-09T01:17:16.634Z,76.0
2018-08-09T01:18:16.909Z,76.1
2018-08-09T01:19:17.192Z,75.9
2018-08-09T01:20:16.493Z,75.8
2018-08-09T01:21:16.526Z,75.7
2018-08-09T01:22:16.802Z,75.7
2018-08-09T01:23:17.088Z,75.7
2018-08-09T01:24:16.362Z,75.7
2018-08-09T01:25:16.624Z,75.8
2018-08-09T01:26:16.890Z,75.8
2018-08-09T01:27:17.158Z,75.8
2018-08-09T01:28:16.420Z,76.0
2018-08-09T01:29:16.685Z,76.2
2018-08-09T01:30:16.971Z,76.2
2018-08-09T01:31:17.006Z,76.0
2018-08-09T01:32:16.275Z,76.1
2018-08-09T01:33:16.546Z,76.2
2018-08-09T01:34:16.815Z,76.2
2018-08-09T01:35:17.083Z,76.6
2018-08-09T01:36:16.353Z,76.4
2018-08-09T01:37:16.624Z,76.3
2018-08-09T01:38:16.893Z,76.4
2018-08-09T01:39:17.159Z,76.2
2018-08-09T01:40:16.435Z,76.2
2018-08-09T01:41:16.483Z,76.5
2018-08-09T01:42:16.754Z,76.8
2018-08-09T01:43:17.022Z,76.9
2018-08-09T01:44:16.296Z,77.0
2018-08-09T01:45:16.574Z,76.9
2018-08-09T01:46:16.853Z,76.9
2018-08-09T01:47:17.132Z,77.2
2018-08-09T01:48:16.392Z,77.2
2018-08-09T01:49:16.662Z,77.1
2018-08-09T01:50:16.939Z,77.1
2018-08-09T01:51:16.985Z,77.2
2018-08-09T01:52:17.249Z,77.3
2018-08-09T01:53:16.525Z,77.3
2018-08-09T01:54:16.799Z,77.3
2018-08-09T01:55:17.066Z,77.5
2018-08-09T01:56:16.328Z,77.3
2018-08-09T01:57:16.605Z,77.4
2018-08-09T01:58:16.869Z,77.3
2018-08-09T01:59:17.152Z,77.3
2018-08-09T02:00:16.417Z,77.4
2018-08-09T02:01:16.471Z,77.4
2018-08-09T02:02:16.742Z,77.3
2018-08-09T02:03:17.009Z,77.3
2018-08-09T02:04:16.295Z,77.2
2018-08-09T02:05:16.564Z,77.2
2018-08-09T02:06:16.902Z,76.9
2018-08-09T02:07:17.188Z,77.1
2018-08-09T02:08:16.485Z,76.9
2018-08-09T02:09:16.751Z,76.5
2018-08-09T02:10:17.048Z,76.5
2018-08-09T02:11:17.071Z,76.5
2018-08-09T02:12:16.348Z,76.5
2018-08-09T02:13:16.626Z,76.2
2018-08-09T02:14:16.889Z,76.3
2018-08-09T02:15:17.165Z,77.0
2018-08-09T02:16:16.441Z,76.9
2018-08-09T02:17:16.706Z,77.0
2018-08-09T02:18:16.971Z,76.2
2018-08-09T02:19:17.236Z,76.2
2018-08-09T02:20:16.513Z,76.2
2018-08-09T02:21:16.563Z,76.2
2018-08-09T02:22:16.859Z,76.2
2018-08-09T02:23:17.140Z,76.2
2018-08-09T02:24:16.385Z,76.5
2018-08-09T02:25:16.648Z,76.3
2018-08-09T02:26:16.913Z,76.4
2018-08-09T02:27:17.179Z,76.4
2018-08-09T02:28:16.449Z,76.4
2018-08-09T02:29:16.725Z,76.7
2018-08-09T02:30:17.026Z,76.6
2018-08-09T02:31:17.056Z,76.8
2018-08-09T02:32:16.324Z,77.2
2018-08-09T02:33:16.594Z,77.3
2018-08-09T02:34:16.866Z,77.7
2018-08-09T02:35:17.148Z,78.1
2018-08-09T02:36:16.435Z,78.3
2018-08-09T02:37:16.716Z,78.0
2018-08-09T02:38:17.004Z,78.6
2018-08-09T02:39:16.276Z,78.4
2018-08-09T02:40:16.568Z,78.4
2018-08-09T02:41:16.612Z,78.8
2018-08-09T02:42:16.894Z,78.8
2018-08-09T02:43:17.163Z,78.7
2018-08-09T02:44:16.435Z,79.1
2018-08-09T02:45:16.715Z,79.2
2018-08-09T02:46:16.998Z,79.3
2018-08-09T02:47:16.317Z,79.3
2018-08-09T02:48:16.611Z,79.4
2018-08-09T02:49:16.895Z,79.5
2018-08-09T02:50:17.173Z,79.5
2018-08-09T02:51:17.229Z,79.6
2018-08-09T02:52:16.524Z,79.6
2018-08-09T02:53:16.788Z,79.6
2018-08-09T02:54:17.064Z,79.8
2018-08-09T02:55:16.336Z,79.7
2018-08-09T02:56:16.612Z,79.8
2018-08-09T02:57:16.884Z,79.8
2018-08-09T02:58:16.286Z,79.7
2018-08-09T02:59:16.566Z,79.8
2018-08-09T03:00:16.843Z,79.8
2018-08-09T03:01:16.903Z,79.7
2018-08-09T03:02:17.176Z,79.7
2018-08-09T03:03:16.745Z,79.8
2018-08-09T03:04:17.024Z,79.8
2018-08-09T03:05:16.313Z,79.8
2018-08-09T03:06:16.578Z,79.8
2018-08-09T03:07:16.844Z,79.7
2018-08-09T03:08:17.437Z,79.6
2018-08-09T03:09:16.708Z,79.4
2018-08-09T03:10:16.988Z,79.2
2018-08-09T03:11:17.037Z,79.4
2018-08-09T03:12:16.327Z,79.5
2018-08-09T03:13:16.606Z,79.7
2018-08-09T03:14:16.874Z,79.7
2018-08-09T03:15:17.165Z,79.4
2018-08-09T03:16:16.447Z,79.3
2018-08-09T03:17:16.803Z,79.2
2018-08-09T03:18:17.082Z,79.1
2018-08-09T03:19:16.345Z,79.1
2018-08-09T03:20:16.648Z,79.0
2018-08-09T03:21:16.698Z,78.9
2018-08-09T03:22:16.975Z,79.0
2018-08-09T03:23:17.239Z,79.2
2018-08-09T03:24:16.590Z,79.5
2018-08-09T03:25:16.881Z,79.8
2018-08-09T03:26:17.152Z,79.8
2018-08-09T03:27:16.420Z,79.8
2018-08-09T03:28:16.686Z,80.0
2018-08-09T03:29:16.959Z,80.0
2018-08-09T03:30:17.234Z,80.1
2018-08-09T03:31:16.302Z,80.2
2018-08-09T03:32:16.582Z,80.2
2018-08-09T03:33:16.848Z,80.4
2018-08-09T03:34:17.125Z,80.5
2018-08-09T03:35:16.393Z,80.8
2018-08-09T03:36:16.666Z,80.8
2018-08-09T03:37:16.929Z,81.0
2018-08-09T03:38:17.195Z,80.8
2018-08-09T03:39:16.467Z,80.9
2018-08-09T03:40:16.736Z,81.0
2018-08-09T03:41:16.795Z,80.7
2018-08-09T03:42:17.072Z,80.6
2018-08-09T03:43:16.341Z,80.7
2018-08-09T03:44:16.603Z,80.7
2018-08-09T03:45:16.875Z,80.7
2018-08-09T03:46:17.142Z,80.7
2018-08-09T03:47:16.403Z,80.7
2018-08-09T03:48:16.684Z,81.2
2018-08-09T03:49:16.959Z,81.4
2018-08-09T03:50:17.234Z,81.5
2018-08-09T03:51:16.294Z,81.7
2018-08-09T03:52:16.565Z,81.6
2018-08-09T03:53:16.830Z,81.8
2018-08-09T03:54:17.124Z,81.9
2018-08-09T03:55:16.423Z,81.9
2018-08-09T03:56:16.684Z,82.1
2018-08-09T03:57:16.960Z,82.2
2018-08-09T03:58:17.275Z,82.5
2018-08-09T03:59:16.547Z,82.7
2018-08-09T04:00:16.848Z,82.8
2018-08-09T04:01:16.873Z,82.8
2018-08-09T04:02:17.140Z,82.8
2018-08-09T04:03:16.417Z,82.8
2018-08-09T04:04:16.688Z,82.8
2018-08-09T04:05:16.966Z,83.0
2018-08-09T04:06:17.234Z,83.1
2018-08-09T04:07:16.495Z,83.3
2018-08-09T04:08:16.771Z,83.3
2018-08-09T04:09:17.048Z,83.4
2018-08-09T04:10:16.319Z,83.3
2018-08-09T04:11:16.361Z,83.5
2018-08-09T04:12:16.637Z,83.5
2018-08-09T04:13:16.898Z,83.6
2018-08-09T04:14:17.169Z,83.7
2018-08-09T04:15:16.453Z,83.7
2018-08-09T04:16:16.729Z,83.4
2018-08-09T04:17:17.009Z,83.5
2018-08-09T04:18:16.273Z,83.4
2018-08-09T04:19:16.563Z,83.2
2018-08-09T04:20:16.843Z,83.2
2018-08-09T04:21:16.877Z,83.2
2018-08-09T04:22:17.137Z,83.1
2018-08-09T04:23:16.402Z,83.1
2018-08-09T04:24:16.669Z,83.0
2018-08-09T04:25:16.960Z,82.9
2018-08-09T04:26:17.229Z,82.8
2018-08-09T04:27:16.494Z,82.8
2018-08-09T04:28:16.774Z,82.8
2018-08-09T04:29:17.056Z,82.9
2018-08-09T04:30:16.423Z,82.8
2018-08-09T04:31:16.375Z,82.9
2018-08-09T04:32:16.639Z,82.8
2018-08-09T04:33:16.903Z,82.8
2018-08-09T04:34:17.175Z,82.7
2018-08-09T04:35:16.442Z,82.7
2018-08-09T04:36:16.710Z,82.5
2018-08-09T04:37:16.980Z,82.5
2018-08-09T04:38:16.287Z,82.2
2018-08-09T04:39:16.553Z,82.1
2018-08-09T04:40:16.840Z,82.1
2018-08-09T04:41:16.882Z,82.1
2018-08-09T04:42:17.157Z,81.9
2018-08-09T04:43:16.444Z,82.2
2018-08-09T04:44:16.711Z,82.2
2018-08-09T04:45:16.981Z,82.0
2018-08-09T04:46:17.256Z,81.9
2018-08-09T04:47:16.534Z,81.5
2018-08-09T04:48:16.803Z,81.1
2018-08-09T04:49:17.168Z,80.9
2018-08-09T04:50:16.467Z,80.7
2018-08-09T04:51:16.499Z,80.6
2018-08-09T04:52:16.770Z,80.7
2018-08-09T04:53:17.036Z,80.5
2018-08-09T04:54:16.303Z,80.3
2018-08-09T04:55:16.574Z,80.7
2018-08-09T04:56:16.833Z,80.8
2018-08-09T04:57:17.100Z,80.7
2018-08-09T04:58:16.418Z,80.6
2018-08-09T04:59:16.692Z,80.7
2018-08-09T05:00:16.972Z,80.3
2018-08-09T05:01:17.028Z,80.1
2018-08-09T05:02:16.302Z,80.1
2018-08-09T05:03:16.570Z,80.5
2018-08-09T05:04:16.842Z,80.6
2018-08-09T05:05:17.115Z,80.3
2018-08-09T05:06:16.385Z,79.9
2018-08-09T05:07:16.648Z,79.4
2018-08-09T05:08:16.922Z,79.5
2018-08-09T05:09:17.202Z,79.3
2018-08-09T05:10:16.542Z,79.0
2018-08-09T05:11:16.516Z,78.8
2018-08-09T05:12:16.778Z,78.5
2018-08-09T05:13:17.042Z,78.2
2018-08-09T05:14:16.303Z,77.7
2018-08-09T05:15:16.951Z,77.7
2018-08-09T05:16:17.217Z,77.7
2018-08-09T05:17:16.488Z,77.8
2018-08-09T05:18:16.755Z,77.8
2018-08-09T05:19:17.020Z,77.9
2018-08-09T05:20:16.296Z,77.9
2018-08-09T05:21:16.387Z,76.9
2018-08-09T05:22:16.659Z,76.5
2018-08-09T05:23:16.944Z,76.3
2018-08-09T05:24:17.207Z,75.8
2018-08-09T05:25:16.498Z,75.8
2018-08-09T05:26:16.765Z,75.8
2018-08-09T05:27:17.046Z,75.9
2018-08-09T05:28:16.290Z,76.2
2018-08-09T05:29:16.561Z,76.1
2018-08-09T05:30:16.841Z,76.2
2018-08-09T05:31:16.890Z,76.1
2018-08-09T05:32:17.167Z,76.3
2018-08-09T05:33:16.444Z,76.2
2018-08-09T05:34:16.935Z,76.0
2018-08-09T05:35:16.297Z,75.5
2018-08-09T05:36:16.596Z,74.8
2018-08-09T05:37:16.878Z,74.7
2018-08-09T05:38:17.141Z,74.4
2018-08-09T05:39:16.409Z,74.2
2018-08-09T05:40:16.680Z,74.0
2018-08-09T05:41:16.765Z,73.7
2018-08-09T05:42:17.033Z,73.6
2018-08-09T05:43:16.312Z,73.2
2018-08-09T05:44:16.586Z,73.2
2018-08-09T05:45:16.942Z,72.9
2018-08-09T05:46:17.222Z,72.4
2018-08-09T05:47:16.492Z,72.2
2018-08-09T05:48:16.764Z,72.2
2018-08-09T05:49:17.048Z,72.2
2018-08-09T05:50:16.342Z,71.8
2018-08-09T05:51:16.355Z,71.9
2018-08-09T05:52:16.619Z,72.0
2018-08-09T05:53:17.091Z,71.0
2018-08-09T05:54:16.379Z,70.8
2018-08-09T05:55:16.642Z,71.1
2018-08-09T05:56:16.913Z,71.7
2018-08-09T05:57:17.176Z,71.5
2018-08-09T05:58:16.445Z,71.1
2018-08-09T05:59:16.711Z,70.7
2018-08-09T06:00:16.991Z,70.5
2018-08-09T06:01:17.024Z,69.9
2018-08-09T06:02:16.289Z,70.3
2018-08-09T06:03:16.565Z,70.0
2018-08-09T06:04:16.827Z,69.9
2018-08-09T06:05:17.111Z,69.7
2018-08-09T06:06:16.382Z,69.7
2018-08-09T06:07:16.654Z,68.9
2018-08-09T06:08:16.921Z,68.7
2018-08-09T06:09:17.198Z,68.2
2018-08-09T06:10:16.488Z,68.0
2018-08-09T06:11:16.542Z,67.7
2018-08-09T06:12:16.816Z,67.5
2018-08-09T06:13:17.195Z,67.7
2018-08-09T06:14:16.481Z,67.7
2018-08-09T06:15:16.755Z,67.8
2018-08-09T06:16:17.023Z,67.5
2018-08-09T06:17:16.284Z,67.8
2018-08-09T06:18:16.555Z,67.2
2018-08-09T06:19:16.833Z,66.7
2018-08-09T06:20:17.111Z,66.9
2018-08-09T06:21:17.143Z,66.8
2018-08-09T06:22:16.405Z,66.5
2018-08-09T06:23:16.677Z,66.3
2018-08-09T06:24:16.946Z,66.2
2018-08-09T06:25:17.244Z,66.2
2018-08-09T06:26:16.600Z,65.2
2018-08-09T06:27:16.883Z,65.1
2018-08-09T06:28:17.143Z,65.2
2018-08-09T06:29:16.422Z,64.4
2018-08-09T06:30:16.711Z,64.4
2018-08-09T06:31:16.741Z,64.6
2018-08-09T06:32:17.015Z,63.0
2018-08-09T06:33:16.288Z,62.8
2018-08-09T06:34:16.565Z,63.3
2018-08-09T06:35:16.838Z,63.1
2018-08-09T06:36:17.098Z,62.2
2018-08-09T06:37:16.373Z,61.8
2018-08-09T06:38:16.637Z,62.0
2018-08-09T06:39:16.911Z,61.8
2018-08-09T06:40:17.202Z,61.4
2018-08-09T06:41:17.248Z,59.4
2018-08-09T06:42:16.515Z,59.2
2018-08-09T06:43:16.785Z,59.8
2018-08-09T06:44:17.073Z,59.8
2018-08-09T06:45:16.338Z,60.8
2018-08-09T06:46:16.610Z,60.7
2018-08-09T06:47:16.879Z,60.5
2018-08-09T06:48:17.144Z,58.8
2018-08-09T06:49:16.421Z,57.2
2018-08-09T06:50:16.695Z,56.4
2018-08-09T06:51:16.750Z,56.1
2018-08-09T06:52:17.015Z,55.0
2018-08-09T06:53:16.290Z,55.1
2018-08-09T06:54:16.552Z,55.8
2018-08-09T06:55:16.822Z,54.6
2018-08-09T06:56:17.222Z,54.0
2018-08-09T06:57:16.505Z,53.0
2018-08-09T06:58:16.780Z,52.5
2018-08-09T06:59:17.041Z,52.5
2018-08-09T07:00:16.313Z,52.0
2018-08-09T07:01:16.366Z,53.3
2018-08-09T07:02:16.644Z,52.4
2018-08-09T07:03:16.908Z,51.9
2018-08-09T07:04:17.173Z,51.2
2018-08-09T07:05:16.435Z,50.7
2018-08-09T07:06:16.709Z,50.8
2018-08-09T07:07:16.988Z,50.6
2018-08-09T07:08:16.255Z,51.4
2018-08-09T07:09:16.522Z,51.0
2018-08-09T07:10:16.814Z,50.4
2018-08-09T07:11:16.855Z,50.0
2018-08-09T07:12:17.127Z,50.4
2018-08-09T07:13:16.392Z,49.9
2018-08-09T07:14:16.681Z,48.8
2018-08-09T07:15:16.958Z,48.6
2018-08-09T07:16:17.226Z,49.2
2018-08-09T07:17:16.501Z,49.4
2018-08-09T07:18:16.777Z,48.8
2018-08-09T07:19:17.034Z,48.8
2018-08-09T07:20:16.408Z,48.8
2018-08-09T07:21:16.368Z,49.0
2018-08-09T07:22:16.629Z,49.1
2018-08-09T07:23:16.900Z,49.0
2018-08-09T07:24:17.175Z,48.5
2018-08-09T07:25:16.443Z,48.5
2018-08-09T07:26:16.802Z,48.0
2018-08-09T07:27:17.104Z,48.0
2018-08-09T07:28:16.374Z,47.2
2018-08-09T07:29:16.647Z,47.9
2018-08-09T07:30:16.941Z,47.8
2018-08-09T07:31:16.964Z,48.4
2018-08-09T07:32:17.235Z,48.6
2018-08-09T07:33:16.496Z,48.0
2018-08-09T07:34:16.765Z,48.5
2018-08-09T07:35:17.039Z,47.2
2018-08-09T07:36:16.333Z,46.8
2018-08-09T07:37:16.876Z,47.0
2018-08-09T07:38:17.149Z,48.8
2018-08-09T07:39:16.446Z,49.2
2018-08-09T07:40:16.727Z,49.0
2018-08-09T07:41:16.806Z,47.2
2018-08-09T07:42:17.070Z,46.5
2018-08-09T07:43:16.336Z,46.2
2018-08-09T07:44:16.605Z,46.5
2018-08-09T07:45:16.884Z,46.4
2018-08-09T07:46:17.170Z,45.7
2018-08-09T07:47:16.446Z,45.2
2018-08-09T07:48:16.712Z,44.7
2018-08-09T07:49:16.974Z,44.1
2018-08-09T07:50:17.259Z,45.4
2018-08-09T07:51:16.358Z,46.4
2018-08-09T07:52:16.655Z,46.5
2018-08-09T07:53:16.921Z,46.9
2018-08-09T07:54:17.324Z,46.0
2018-08-09T07:55:16.603Z,45.8
2018-08-09T07:56:16.866Z,45.0
2018-08-09T07:57:17.165Z,44.5
2018-08-09T07:58:16.423Z,44.9
2018-08-09T07:59:16.683Z,43.5
2018-08-09T08:00:16.969Z,44.6
2018-08-09T08:01:17.006Z,44.5
2018-08-09T08:02:16.266Z,43.6
2018-08-09T08:03:16.544Z,42.8
2018-08-09T08:04:16.815Z,42.8
2018-08-09T08:05:17.090Z,42.8
2018-08-09T08:06:16.564Z,42.9
2018-08-09T08:07:16.837Z,42.7
2018-08-09T08:08:17.249Z,43.5
2018-08-09T08:09:16.549Z,42.8
2018-08-09T08:10:16.824Z,42.6
2018-08-09T08:11:16.854Z,42.0
2018-08-09T08:12:17.113Z,42.0
2018-08-09T08:13:16.387Z,42.9
2018-08-09T08:14:16.657Z,43.3
2018-08-09T08:15:16.928Z,44.2
2018-08-09T08:16:17.200Z,43.5
2018-08-09T08:17:16.459Z,43.0
2018-08-09T08:18:16.720Z,42.4
2018-08-09T08:19:16.996Z,41.8
2018-08-09T08:20:16.268Z,41.0
2018-08-09T08:21:16.314Z,40.2
2018-08-09T08:22:16.585Z,40.0
2018-08-09T08:23:16.851Z,40.8
2018-08-09T08:24:17.136Z,40.1
2018-08-09T08:25:16.409Z,39.8
2018-08-09T08:26:16.669Z,40.8
2018-08-09T08:27:16.936Z,40.6
2018-08-09T08:28:17.202Z,40.1
2018-08-09T08:29:16.447Z,40.0
2018-08-09T08:30:16.715Z,40.2
2018-08-09T08:31:16.776Z,39.9
2018-08-09T08:32:17.048Z,39.3
2018-08-09T08:33:16.311Z,40.9
2018-08-09T08:34:16.564Z,41.8
2018-08-09T08:35:16.831Z,40.6
2018-08-09T08:36:17.112Z,40.9
2018-08-09T08:37:16.428Z,41.7
2018-08-09T08:38:16.695Z,40.8
2018-08-09T08:39:16.967Z,40.4
2018-08-09T08:40:17.209Z,40.0
2018-08-09T08:41:16.309Z,39.7
2018-08-09T08:42:16.588Z,39.5
2018-08-09T08:43:16.855Z,39.4
2018-08-09T08:44:17.455Z,38.8
2018-08-09T08:45:16.742Z,38.6
2018-08-09T08:46:17.009Z,38.7
2018-08-09T08:47:16.315Z,39.1
2018-08-09T08:48:16.613Z,37.5
2018-08-09T08:49:16.874Z,37.9
2018-08-09T08:50:17.170Z,37.3
2018-08-09T08:51:17.209Z,37.8
2018-08-09T08:52:16.481Z,37.9
2018-08-09T08:53:16.973Z,38.7
2018-08-09T08:54:16.308Z,38.5
2018-08-09T08:55:16.778Z,37.8
2018-08-09T08:56:17.084Z,37.1
2018-08-09T08:57:16.361Z,36.8
2018-08-09T08:58:16.648Z,37.0
2018-08-09T08:59:16.916Z,36.5
2018-08-09T09:00:17.183Z,37.5
2018-08-09T09:01:17.552Z,37.8
2018-08-09T09:02:16.817Z,36.0
2018-08-09T09:03:17.090Z,36.0
2018-08-09T09:04:16.437Z,36.0
2018-08-09T09:05:16.713Z,36.5
2018-08-09T09:06:16.980Z,37.4
2018-08-09T09:07:17.551Z,38.1
2018-08-09T09:08:16.816Z,38.2
2018-08-09T09:09:17.098Z,37.1
2018-08-09T09:10:16.375Z,35.8
2018-08-09T09:11:16.426Z,36.1
2018-08-09T09:12:16.700Z,36.1
2018-08-09T09:13:16.972Z,36.8
2018-08-09T09:14:17.245Z,35.4
2018-08-09T09:15:16.516Z,35.0
2018-08-09T09:16:16.778Z,34.3
2018-08-09T09:17:17.086Z,36.5
2018-08-09T09:18:16.354Z,36.2
2018-08-09T09:19:16.744Z,35.4
2018-08-09T09:20:17.087Z,36.1
2018-08-09T09:21:17.121Z,35.6
2018-08-09T09:22:16.393Z,35.6
2018-08-09T09:23:16.664Z,36.1
2018-08-09T09:24:16.936Z,35.1
2018-08-09T09:25:17.216Z,35.6
2018-08-09T09:26:16.480Z,34.2
2018-08-09T09:27:16.748Z,34.1
2018-08-09T09:28:17.030Z,34.2
2018-08-09T09:29:16.296Z,33.5
2018-08-09T09:30:16.566Z,34.4
2018-08-09T09:31:16.609Z,34.3
2018-08-09T09:32:16.879Z,33.6
2018-08-09T09:33:17.142Z,33.1
2018-08-09T09:34:16.411Z,32.8
2018-08-09T09:35:16.679Z,33.2
2018-08-09T09:36:16.947Z,32.5
2018-08-09T09:37:17.217Z,32.5
2018-08-09T09:38:16.473Z,32.6
2018-08-09T09:39:16.737Z,33.5
2018-08-09T09:40:16.998Z,33.9
2018-08-09T09:41:17.138Z,33.8
2018-08-09T09:42:16.405Z,32.6
2018-08-09T09:43:16.670Z,33.0
2018-08-09T09:44:16.938Z,32.3
2018-08-09T09:45:17.208Z,32.9
2018-08-09T09:46:16.492Z,32.8
2018-08-09T09:47:16.758Z,32.7
2018-08-09T09:48:17.020Z,32.8
2018-08-09T09:49:16.288Z,32.7
2018-08-09T09:50:16.567Z,32.9
2018-08-09T09:51:16.602Z,32.6
2018-08-09T09:52:16.877Z,32.0
2018-08-09T09:53:17.149Z,31.9
2018-08-09T09:54:16.416Z,32.4
2018-08-09T09:55:16.699Z,33.1
2018-08-09T09:56:16.963Z,33.2
2018-08-09T09:57:17.250Z,33.0
2018-08-09T09:58:16.528Z,32.4
2018-08-09T09:59:16.797Z,31.8
2018-08-09T10:00:17.086Z,31.8
2018-08-09T10:01:17.131Z,31.8
2018-08-09T10:02:16.402Z,32.1
2018-08-09T10:03:16.683Z,31.7
2018-08-09T10:04:16.962Z,32.3
2018-08-09T10:05:17.233Z,33.5
2018-08-09T10:06:16.508Z,33.5
2018-08-09T10:07:17.003Z,33.5
2018-08-09T10:08:16.299Z,32.4
2018-08-09T10:09:16.576Z,31.8
2018-08-09T10:10:16.853Z,31.5
2018-08-09T10:11:16.918Z,31.1
2018-08-09T10:12:17.181Z,31.2
2018-08-09T10:13:16.445Z,31.3
2018-08-09T10:14:16.717Z,31.4
2018-08-09T10:15:16.975Z,31.3
2018-08-09T10:16:17.238Z,32.6
2018-08-09T10:17:16.500Z,33.0
2018-08-09T10:18:16.777Z,32.0
2018-08-09T10:19:17.044Z,32.2
2018-08-09T10:20:16.328Z,32.8
2018-08-09T10:21:16.364Z,32.5
2018-08-09T10:22:16.629Z,32.5
2018-08-09T10:23:17.209Z,32.0
2018-08-09T10:24:16.483Z,31.5
2018-08-09T10:25:16.759Z,32.2
2018-08-09T10:26:17.032Z,32.2
2018-08-09T10:27:16.309Z,31.8
2018-08-09T10:28:16.578Z,31.6
2018-08-09T10:29:16.855Z,31.1
2018-08-09T10:30:17.148Z,32.0
2018-08-09T10:31:17.192Z,32.3
2018-08-09T10:32:16.456Z,31.4
2018-08-09T10:33:16.721Z,30.8
2018-08-09T10:34:16.996Z,30.7
2018-08-09T10:35:16.276Z,30.2
2018-08-09T10:36:16.543Z,30.6
2018-08-09T10:37:16.830Z,31.2
2018-08-09T10:38:17.105Z,31.8
2018-08-09T10:39:16.382Z,32.2
2018-08-09T10:40:16.675Z,32.4
2018-08-09T10:41:16.715Z,32.5
2018-08-09T10:42:16.992Z,31.1
2018-08-09T10:43:16.262Z,30.3
2018-08-09T10:44:16.526Z,30.0
2018-08-09T10:45:16.804Z,31.2
2018-08-09T10:46:17.078Z,31.3
2018-08-09T10:47:16.358Z,30.6
2018-08-09T10:48:16.626Z,30.4
2018-08-09T10:49:16.905Z,30.2
2018-08-09T10:50:17.176Z,31.1
2018-08-09T10:51:17.230Z,31.0
2018-08-09T10:52:16.493Z,30.1
2018-08-09T10:53:16.761Z,29.8
2018-08-09T10:54:17.032Z,31.3
2018-08-09T10:55:16.300Z,30.8
2018-08-09T10:56:16.578Z,30.2
2018-08-09T10:57:16.855Z,29.5
2018-08-09T10:58:17.137Z,29.4
2018-08-09T10:59:16.409Z,29.3
2018-08-09T11:00:16.689Z,29.2
2018-08-09T11:01:16.737Z,29.9
2018-08-09T11:02:17.001Z,30.3
2018-08-09T11:03:16.262Z,30.9
2018-08-09T11:04:16.540Z,31.3
2018-08-09T11:05:16.808Z,31.3
2018-08-09T11:06:17.077Z,29.9
2018-08-09T11:07:16.370Z,29.6
2018-08-09T11:08:16.649Z,29.2
2018-08-09T11:09:16.934Z,29.8
2018-08-09T11:10:17.209Z,30.2
2018-08-09T11:11:16.277Z,29.8
2018-08-09T11:12:16.557Z,29.6
2018-08-09T11:13:16.831Z,29.0
2018-08-09T11:14:17.123Z,29.1
2018-08-09T11:15:16.410Z,28.3
2018-08-09T11:16:16.678Z,29.5
2018-08-09T11:17:16.941Z,29.0
2018-08-09T11:18:17.218Z,28.3
2018-08-09T11:19:16.491Z,27.9
2018-08-09T11:20:16.761Z,27.8
2018-08-09T11:21:16.813Z,27.9
2018-08-09T11:22:17.087Z,28.1
2018-08-09T11:23:16.735Z,28.3
2018-08-09T11:24:17.008Z,27.8
2018-08-09T11:25:16.284Z,28.1
2018-08-09T11:26:16.555Z,28.6
2018-08-09T11:27:16.839Z,29.2
2018-08-09T11:28:17.123Z,29.4
2018-08-09T11:29:16.385Z,29.1
2018-08-09T11:30:16.658Z,28.3
2018-08-09T11:31:16.693Z,28.4
2018-08-09T11:32:16.956Z,28.2
2018-08-09T11:33:17.222Z,28.3
2018-08-09T11:34:16.495Z,28.4
2018-08-09T11:35:16.788Z,28.5
2018-08-09T11:36:17.108Z,28.7
2018-08-09T11:37:16.375Z,28.2
2018-08-09T11:38:16.659Z,28.1
2018-08-09T11:39:16.933Z,27.5
2018-08-09T11:40:17.240Z,27.9
2018-08-09T11:41:16.274Z,27.8
2018-08-09T11:42:16.551Z,28.4
2018-08-09T11:43:16.825Z,28.1
2018-08-09T11:44:17.107Z,28.2
2018-08-09T11:45:16.392Z,28.1
2018-08-09T11:46:16.667Z,27.6
2018-08-09T11:47:16.933Z,27.8
2018-08-09T11:48:17.211Z,28.5
2018-08-09T11:49:16.558Z,28.5
2018-08-09T11:50:16.841Z,28.1
2018-08-09T11:51:16.884Z,28.5
2018-08-09T11:52:17.155Z,28.4
2018-08-09T11:53:16.462Z,28.5
2018-08-09T11:54:16.753Z,28.8
2018-08-09T11:55:17.047Z,28.7
2018-08-09T11:56:16.636Z,28.8
2018-08-09T11:57:17.144Z,30.4
2018-08-09T11:58:16.433Z,30.1
2018-08-09T11:59:16.718Z,30.0
2018-08-09T12:00:17.003Z,30.2
2018-08-09T12:01:17.105Z,30.4
2018-08-09T12:02:16.379Z,29.9
2018-08-09T12:03:16.762Z,29.9
2018-08-09T12:04:17.092Z,30.0
2018-08-09T12:05:16.372Z,30.3
2018-08-09T12:06:16.649Z,30.4
2018-08-09T12:07:16.917Z,30.6
2018-08-09T12:08:17.195Z,30.8
2018-08-09T12:09:16.469Z,30.3
2018-08-09T12:10:16.758Z,30.2
2018-08-09T12:11:16.783Z,29.9
2018-08-09T12:12:17.048Z,29.9
2018-08-09T12:13:16.327Z,30.2
2018-08-09T12:14:16.598Z,30.2
2018-08-09T12:15:16.916Z,30.5
2018-08-09T12:16:17.487Z,30.5
2018-08-09T12:17:16.751Z,30.2
2018-08-09T12:18:17.020Z,30.3
2018-08-09T12:19:16.286Z,30.3
2018-08-09T12:20:16.582Z,30.3
2018-08-09T12:21:16.625Z,30.5
2018-08-09T12:22:16.901Z,30.9
2018-08-09T12:23:17.254Z,30.9
2018-08-09T12:24:16.582Z,31.0
2018-08-09T12:25:16.854Z,30.8
2018-08-09T12:26:17.134Z,30.6
2018-08-09T12:27:16.406Z,30.9
2018-08-09T12:28:16.676Z,31.1
2018-08-09T12:29:16.945Z,31.1
2018-08-09T12:30:17.288Z,31.0
2018-08-09T12:31:16.267Z,30.3
2018-08-09T12:32:16.549Z,30.1
2018-08-09T12:33:16.976Z,30.1
2018-08-09T12:34:17.268Z,30.3
2018-08-09T12:35:16.539Z,30.0
2018-08-09T12:36:16.815Z,30.2
2018-08-09T12:37:17.083Z,30.1
2018-08-09T12:38:16.344Z,29.8
2018-08-09T12:39:16.616Z,29.8
2018-08-09T12:40:16.897Z,30.0
2018-08-09T12:41:16.926Z,30.0
2018-08-09T12:42:17.199Z,29.9
2018-08-09T12:43:16.467Z,30.0
2018-08-09T12:44:16.747Z,30.0
2018-08-09T12:45:17.232Z,30.1
2018-08-09T12:46:16.525Z,30.1
2018-08-09T12:47:16.799Z,30.2
2018-08-09T12:48:17.071Z,30.2
2018-08-09T12:49:16.333Z,29.9
2018-08-09T12:50:16.609Z,29.6
2018-08-09T12:51:16.642Z,29.6
2018-08-09T12:52:16.912Z,30.0
2018-08-09T12:53:17.203Z,30.1
2018-08-09T12:54:16.471Z,30.4
2018-08-09T12:55:16.741Z,30.1
2018-08-09T12:56:17.010Z,29.9
2018-08-09T12:57:16.289Z,29.9
2018-08-09T12:58:16.554Z,29.3
2018-08-09T12:59:16.835Z,29.7
2018-08-09T13:00:17.187Z,29.6
2018-08-09T13:01:17.155Z,29.9
2018-08-09T13:02:16.431Z,29.8
2018-08-09T13:03:16.706Z,30.1
2018-08-09T13:04:16.971Z,30.5
2018-08-09T13:05:17.235Z,30.4
2018-08-09T13:06:16.511Z,30.5
2018-08-09T13:07:16.788Z,30.1
2018-08-09T13:08:17.098Z,30.2
2018-08-09T13:09:16.426Z,30.8
2018-08-09T13:10:16.700Z,30.8
2018-08-09T13:11:16.737Z,30.9
2018-08-09T13:12:17.015Z,31.1
2018-08-09T13:13:16.287Z,30.6
2018-08-09T13:14:16.558Z,30.0
2018-08-09T13:15:16.852Z,30.0
2018-08-09T13:16:17.121Z,30.1
2018-08-09T13:17:16.396Z,29.7
2018-08-09T13:18:16.672Z,29.6